sensor_id;sensor_type;location;lat;lon;timestamp;pressure;altitude;pressure_sealevel;temperature;humidity
46303;BME280;32029;51.358;5.628;2024-03-25T00:00:13;100501.84;;;6.51;100.00
46303;BME280;32029;51.358;5.628;2024-03-25T00:00:36;100509.56;;;6.55;100.00
46303;BME280;32029;51.358;5.628;2024-03-25T00:00:59;100517.56;;;6.57;100.00
46303;BME280;32029;51.358;5.628;2024-03-25T00:01:21;100512.94;;;6.57;100.00
46303;BME280;32029;51.358;5.628;2024-03-25T00:01:43;100516.53;;;6.58;100.00
46303;BME280;32029;51.358;5.628;2024-03-25T00:02:05;100526.06;;;6.62;100.00
46303;BME280;32029;51.358;5.628;2024-03-25T00:02:27;100512.44;;;6.54;100.00
46303;BME280;32029;51.358;5.628;2024-03-25T00:02:49;100505.78;;;6.56;100.00
46303;BME280;32029;51.358;5.628;2024-03-25T00:03:11;100513.97;;;6.56;100.00
46303;BME280;32029;51.358;5.628;2024-03-25T00:03:34;100523.00;;;6.57;100.00
46303;BME280;32029;51.358;5.628;2024-03-25T00:03:55;100506.97;;;6.54;100.00
46303;BME280;32029;51.358;5.628;2024-03-25T00:04:18;100490.28;;;6.41;100.00
46303;BME280;32029;51.358;5.628;2024-03-25T00:04:40;100519.44;;;6.56;100.00
46303;BME280;32029;51.358;5.628;2024-03-25T00:05:03;100512.09;;;6.57;100.00
46303;BME280;32029;51.358;5.628;2024-03-25T00:05:25;100503.72;;;6.50;100.00
46303;BME280;32029;51.358;5.628;2024-03-25T00:05:47;100496.91;;;6.46;100.00
46303;BME280;32029;51.358;5.628;2024-03-25T00:06:09;100519.44;;;6.56;100.00
46303;BME280;32029;51.358;5.628;2024-03-25T00:06:32;100514.50;;;6.52;100.00
46303;BME280;32029;51.358;5.628;2024-03-25T00:06:54;100508.34;;;6.50;100.00
46303;BME280;32029;51.358;5.628;2024-03-25T00:07:16;100514.50;;;6.52;100.00
46303;BME280;32029;51.358;5.628;2024-03-25T00:07:38;100520.28;;;6.57;100.00
46303;BME280;32029;51.358;5.628;2024-03-25T00:08:00;100498.78;;;6.46;100.00
46303;BME280;32029;51.358;5.628;2024-03-25T00:08:22;100509.03;;;6.52;100.00
46303;BME280;32029;51.358;5.628;2024-03-25T00:08:44;100512.59;;;6.52;100.00
46303;BME280;32029;51.358;5.628;2024-03-25T00:09:07;100507.31;;;6.51;100.00
46303;BME280;32029;51.358;5.628;2024-03-25T00:09:29;100523.84;;;6.57;100.00
46303;BME280;32029;51.358;5.628;2024-03-25T00:09:51;100512.75;;;6.51;100.00
46303;BME280;32029;51.358;5.628;2024-03-25T00:10:14;100517.03;;;6.53;100.00
46303;BME280;32029;51.358;5.628;2024-03-25T00:10:37;100514.50;;;6.52;100.00
46303;BME280;32029;51.358;5.628;2024-03-25T00:10:59;100511.06;;;6.50;100.00
46303;BME280;32029;51.358;5.628;2024-03-25T00:11:21;100503.91;;;6.49;100.00
46303;BME280;32029;51.358;5.628;2024-03-25T00:11:44;100523.34;;;6.54;100.00
46303;BME280;32029;51.358;5.628;2024-03-25T00:12:07;100505.94;;;6.47;100.00
46303;BME280;32029;51.358;5.628;2024-03-25T00:12:29;100502.88;;;6.42;100.00
46303;BME280;32029;51.358;5.628;2024-03-25T00:12:51;100522.31;;;6.55;100.00
46303;BME280;32029;51.358;5.628;2024-03-25T00:13:14;100506.78;;;6.47;100.00
46303;BME280;32029;51.358;5.628;2024-03-25T00:13:36;100461.28;;;6.15;100.00
46303;BME280;32029;51.358;5.628;2024-03-25T00:13:58;100500.84;;;6.44;100.00
46303;BME280;32029;51.358;5.628;2024-03-25T00:14:21;100518.22;;;6.51;100.00
46303;BME280;32029;51.358;5.628;2024-03-25T00:14:44;100518.22;;;6.51;100.00
46303;BME280;32029;51.358;5.628;2024-03-25T00:15:07;100519.06;;;6.51;100.00
46303;BME280;32029;51.358;5.628;2024-03-25T00:15:30;100504.56;;;6.43;100.00
46303;BME280;32029;51.358;5.628;2024-03-25T00:15:53;100501.19;;;6.41;100.00
46303;BME280;32029;51.358;5.628;2024-03-25T00:16:15;100513.44;;;6.45;100.00
46303;BME280;32029;51.358;5.628;2024-03-25T00:16:37;100506.44;;;6.42;100.00
46303;BME280;32029;51.358;5.628;2024-03-25T00:17:00;100513.97;;;6.48;100.00
46303;BME280;32029;51.358;5.628;2024-03-25T00:17:23;100513.13;;;6.48;100.00
46303;BME280;32029;51.358;5.628;2024-03-25T00:17:45;100522.28;;;6.47;100.00
46303;BME280;32029;51.358;5.628;2024-03-25T00:18:07;100514.13;;;6.47;100.00
46303;BME280;32029;51.358;5.628;2024-03-25T00:18:30;100510.03;;;6.43;100.00
46303;BME280;32029;51.358;5.628;2024-03-25T00:18:52;100511.75;;;6.44;100.00
46303;BME280;32029;51.358;5.628;2024-03-25T00:19:14;100503.19;;;6.38;100.00
46303;BME280;32029;51.358;5.628;2024-03-25T00:19:37;100518.06;;;6.44;100.00
46303;BME280;32029;51.358;5.628;2024-03-25T00:19:59;100511.06;;;6.42;100.00
46303;BME280;32029;51.358;5.628;2024-03-25T00:20:21;100513.78;;;6.42;100.00
46303;BME280;32029;51.358;5.628;2024-03-25T00:20:43;100512.75;;;6.43;100.00
46303;BME280;32029;51.358;5.628;2024-03-25T00:21:06;100510.72;;;6.36;100.00
46303;BME280;32029;51.358;5.628;2024-03-25T00:21:28;100511.75;;;6.44;100.00
46303;BME280;32029;51.358;5.628;2024-03-25T00:21:50;100506.63;;;6.41;100.00
46303;BME280;32029;51.358;5.628;2024-03-25T00:22:12;100523.31;;;6.46;100.00
46303;BME280;32029;51.358;5.628;2024-03-25T00:22:35;100494.69;;;6.33;100.00
46303;BME280;32029;51.358;5.628;2024-03-25T00:22:57;100517.03;;;6.45;100.00
46303;BME280;32029;51.358;5.628;2024-03-25T00:23:19;100508.66;;;6.38;100.00
46303;BME280;32029;51.358;5.628;2024-03-25T00:23:41;100512.41;;;6.37;100.00
46303;BME280;32029;51.358;5.628;2024-03-25T00:24:03;100511.75;;;6.44;100.00
46303;BME280;32029;51.358;5.628;2024-03-25T00:24:26;100515.81;;;6.39;100.00
46303;BME280;32029;51.358;5.628;2024-03-25T00:24:48;100505.59;;;6.33;100.00
46303;BME280;32029;51.358;5.628;2024-03-25T00:25:10;100511.22;;;6.40;100.00
46303;BME280;32029;51.358;5.628;2024-03-25T00:25:33;100505.59;;;6.33;100.00
46303;BME280;32029;51.358;5.628;2024-03-25T00:25:55;100518.38;;;6.41;100.00
46303;BME280;32029;51.358;5.628;2024-03-25T00:26:17;100509.16;;;6.34;100.00
46303;BME280;32029;51.358;5.628;2024-03-25T00:26:41;100515.81;;;6.39;100.00
46303;BME280;32029;51.358;5.628;2024-03-25T00:27:03;100512.22;;;6.39;100.00
46303;BME280;32029;51.358;5.628;2024-03-25T00:27:26;100503.03;;;6.32;100.00
46303;BME280;32029;51.358;5.628;2024-03-25T00:27:48;100508.13;;;6.35;100.00
46303;BME280;32029;51.358;5.628;2024-03-25T00:28:09;100502.16;;;6.31;100.00
46303;BME280;32029;51.358;5.628;2024-03-25T00:28:31;100519.56;;;6.38;100.00
46303;BME280;32029;51.358;5.628;2024-03-25T00:28:53;100499.63;;;6.30;100.00
46303;BME280;32029;51.358;5.628;2024-03-25T00:29:15;100505.59;;;6.33;100.00
46303;BME280;32029;51.358;5.628;2024-03-25T00:29:39;100519.56;;;6.38;100.00
46303;BME280;32029;51.358;5.628;2024-03-25T00:30:02;100521.44;;;6.38;100.00
46303;BME280;32029;51.358;5.628;2024-03-25T00:30:24;100522.97;;;6.41;100.00
46303;BME280;32029;51.358;5.628;2024-03-25T00:30:46;100512.75;;;6.34;100.00
46303;BME280;32029;51.358;5.628;2024-03-25T00:31:08;100505.25;;;6.28;100.00
46303;BME280;32029;51.358;5.628;2024-03-25T00:31:30;100517.69;;;6.39;100.00
46303;BME280;32029;51.358;5.628;2024-03-25T00:31:52;100509.50;;;6.39;100.00
46303;BME280;32029;51.358;5.628;2024-03-25T00:32:14;100514.09;;;6.38;100.00
46303;BME280;32029;51.358;5.628;2024-03-25T00:32:37;100497.22;;;6.35;100.00
46303;BME280;32029;51.358;5.628;2024-03-25T00:32:59;100503.91;;;6.32;100.00
46303;BME280;32029;51.358;5.628;2024-03-25T00:33:21;100496.72;;;6.31;100.00
46303;BME280;32029;51.358;5.628;2024-03-25T00:33:43;100495.53;;;6.34;100.00
46303;BME280;32029;51.358;5.628;2024-03-25T00:34:05;100493.00;;;6.32;100.00
46303;BME280;32029;51.358;5.628;2024-03-25T00:34:27;100490.41;;;6.31;100.00
46303;BME280;32029;51.358;5.628;2024-03-25T00:34:49;100503.19;;;6.38;100.00
46303;BME280;32029;51.358;5.628;2024-03-25T00:35:12;100488.91;;;6.28;100.00
46303;BME280;32029;51.358;5.628;2024-03-25T00:35:33;100495.53;;;6.26;100.00
46303;BME280;32029;51.358;5.628;2024-03-25T00:35:55;100507.28;;;6.34;100.00
46303;BME280;32029;51.358;5.628;2024-03-25T00:36:18;100519.56;;;6.38;100.00
46303;BME280;32029;51.358;5.628;2024-03-25T00:36:40;100504.56;;;6.34;100.00
46303;BME280;32029;51.358;5.628;2024-03-25T00:37:04;100494.50;;;6.27;100.00
46303;BME280;32029;51.358;5.628;2024-03-25T00:37:26;100504.75;;;6.33;100.00
46303;BME280;32029;51.358;5.628;2024-03-25T00:37:49;100513.59;;;6.35;100.00
46303;BME280;32029;51.358;5.628;2024-03-25T00:38:10;100507.28;;;6.34;100.00
46303;BME280;32029;51.358;5.628;2024-03-25T00:38:32;100510.00;;;6.34;100.00
46303;BME280;32029;51.358;5.628;2024-03-25T00:38:53;100512.75;;;6.34;100.00
46303;BME280;32029;51.358;5.628;2024-03-25T00:39:15;100495.34;;;6.27;100.00
46303;BME280;32029;51.358;5.628;2024-03-25T00:39:38;100516.16;;;6.36;100.00
46303;BME280;32029;51.358;5.628;2024-03-25T00:40:00;100487.34;;;6.26;100.00
46303;BME280;32029;51.358;5.628;2024-03-25T00:40:23;100509.34;;;6.32;100.00
46303;BME280;32029;51.358;5.628;2024-03-25T00:40:45;100512.75;;;6.34;100.00
46303;BME280;32029;51.358;5.628;2024-03-25T00:41:07;100505.91;;;6.30;100.00
46303;BME280;32029;51.358;5.628;2024-03-25T00:41:29;100504.75;;;6.33;100.00
46303;BME280;32029;51.358;5.628;2024-03-25T00:41:52;100500.66;;;6.29;100.00
46303;BME280;32029;51.358;5.628;2024-03-25T00:42:15;100497.06;;;6.28;100.00
46303;BME280;32029;51.358;5.628;2024-03-25T00:42:37;100503.53;;;6.27;100.00
46303;BME280;32029;51.358;5.628;2024-03-25T00:43:00;100503.03;;;6.32;100.00
46303;BME280;32029;51.358;5.628;2024-03-25T00:43:22;100494.81;;;6.24;100.00
46303;BME280;32029;51.358;5.628;2024-03-25T00:43:44;100497.56;;;6.24;100.00
46303;BME280;32029;51.358;5.628;2024-03-25T00:44:07;100502.53;;;6.28;100.00
46303;BME280;32029;51.358;5.628;2024-03-25T00:44:29;100509.34;;;6.32;100.00
46303;BME280;32029;51.358;5.628;2024-03-25T00:44:51;100504.88;;;6.31;100.00
46303;BME280;32029;51.358;5.628;2024-03-25T00:45:14;100490.94;;;6.26;100.00
46303;BME280;32029;51.358;5.628;2024-03-25T00:45:36;100492.28;;;6.22;100.00
46303;BME280;32029;51.358;5.628;2024-03-25T00:45:58;100495.53;;;6.26;100.00
46303;BME280;32029;51.358;5.628;2024-03-25T00:46:20;100492.59;;;6.19;100.00
46303;BME280;32029;51.358;5.628;2024-03-25T00:46:42;100491.09;;;6.25;100.00
46303;BME280;32029;51.358;5.628;2024-03-25T00:47:05;100504.88;;;6.31;100.00
46303;BME280;32029;51.358;5.628;2024-03-25T00:47:27;100486.66;;;6.24;100.00
46303;BME280;32029;51.358;5.628;2024-03-25T00:47:49;100515.78;;;6.31;100.00
46303;BME280;32029;51.358;5.628;2024-03-25T00:48:11;100502.53;;;6.28;100.00
46303;BME280;32029;51.358;5.628;2024-03-25T00:48:32;100501.16;;;6.24;100.00
46303;BME280;32029;51.358;5.628;2024-03-25T00:48:56;100493.13;;;6.23;100.00
46303;BME280;32029;51.358;5.628;2024-03-25T00:49:19;100498.44;;;6.24;100.00
46303;BME280;32029;51.358;5.628;2024-03-25T00:49:41;100491.59;;;6.20;100.00
46303;BME280;32029;51.358;5.628;2024-03-25T00:50:02;100498.75;;;6.21;100.00
46303;BME280;32029;51.358;5.628;2024-03-25T00:50:24;100506.59;;;6.24;100.00
46303;BME280;32029;51.358;5.628;2024-03-25T00:50:47;100505.72;;;6.24;100.00
46303;BME280;32029;51.358;5.628;2024-03-25T00:51:09;100503.19;;;6.22;100.00
46303;BME280;32029;51.358;5.628;2024-03-25T00:51:31;100503.19;;;6.22;100.00
46303;BME280;32029;51.358;5.628;2024-03-25T00:51:54;100484.41;;;6.11;100.00
46303;BME280;32029;51.358;5.628;2024-03-25T00:52:17;100497.22;;;6.19;100.00
46303;BME280;32029;51.358;5.628;2024-03-25T00:52:39;100496.38;;;6.18;100.00
46303;BME280;32029;51.358;5.628;2024-03-25T00:53:01;100505.72;;;6.24;100.00
46303;BME280;32029;51.358;5.628;2024-03-25T00:53:23;100484.09;;;6.14;100.00
46303;BME280;32029;51.358;5.628;2024-03-25T00:53:45;100498.75;;;6.13;100.00
46303;BME280;32029;51.358;5.628;2024-03-25T00:54:07;100497.22;;;6.19;100.00
46303;BME280;32029;51.358;5.628;2024-03-25T00:54:29;100488.50;;;6.15;100.00
46303;BME280;32029;51.358;5.628;2024-03-25T00:54:50;100511.34;;;6.22;100.00
46303;BME280;32029;51.358;5.628;2024-03-25T00:55:12;100488.50;;;6.15;100.00
46303;BME280;32029;51.358;5.628;2024-03-25T00:55:34;100449.25;;;5.83;100.00
46303;BME280;32029;51.358;5.628;2024-03-25T00:55:57;100503.50;;;6.19;100.00
46303;BME280;32029;51.358;5.628;2024-03-25T00:56:20;100512.38;;;6.21;100.00
46303;BME280;32029;51.358;5.628;2024-03-25T00:56:42;100497.53;;;6.16;100.00
46303;BME280;32029;51.358;5.628;2024-03-25T00:57:04;100499.41;;;6.15;100.00
46303;BME280;32029;51.358;5.628;2024-03-25T00:57:26;100505.56;;;6.17;100.00
46303;BME280;32029;51.358;5.628;2024-03-25T00:57:50;100502.13;;;6.15;100.00
46303;BME280;32029;51.358;5.628;2024-03-25T00:58:13;100511.69;;;6.19;100.00
46303;BME280;32029;51.358;5.628;2024-03-25T00:58:35;100500.75;;;6.11;100.00
46303;BME280;32029;51.358;5.628;2024-03-25T00:58:57;100497.53;;;6.07;100.00
46303;BME280;32029;51.358;5.628;2024-03-25T00:59:20;100521.56;;;6.20;100.00
46303;BME280;32029;51.358;5.628;2024-03-25T00:59:42;100516.47;;;6.17;100.00
46303;BME280;32029;51.358;5.628;2024-03-25T01:00:04;100512.00;;;6.16;100.00
46303;BME280;32029;51.358;5.628;2024-03-25T01:00:27;100487.97;;;6.03;100.00
46303;BME280;32029;51.358;5.628;2024-03-25T01:00:49;100506.22;;;6.11;100.00
46303;BME280;32029;51.358;5.628;2024-03-25T01:01:11;100516.78;;;6.14;100.00
46303;BME280;32029;51.358;5.628;2024-03-25T01:01:33;100500.41;;;6.06;100.00
46303;BME280;32029;51.358;5.628;2024-03-25T01:01:56;100524.78;;;6.16;100.00
46303;BME280;32029;51.358;5.628;2024-03-25T01:02:19;100510.47;;;6.05;100.00
46303;BME280;32029;51.358;5.628;2024-03-25T01:02:42;100506.00;;;6.04;100.00
46303;BME280;32029;51.358;5.628;2024-03-25T01:03:04;100517.81;;;6.13;100.00
46303;BME280;32029;51.358;5.628;2024-03-25T01:03:26;100509.78;;;6.03;100.00
46303;BME280;32029;51.358;5.628;2024-03-25T01:03:49;100512.16;;;6.06;100.00
46303;BME280;32029;51.358;5.628;2024-03-25T01:04:12;100521.53;;;6.12;100.00
46303;BME280;32029;51.358;5.628;2024-03-25T01:04:34;100516.91;;;6.04;100.00
46303;BME280;32029;51.358;5.628;2024-03-25T01:04:57;100528.72;;;6.13;100.00
46303;BME280;32029;51.358;5.628;2024-03-25T01:05:18;100514.38;;;6.03;100.00
46303;BME280;32029;51.358;5.628;2024-03-25T01:05:40;100514.38;;;6.03;100.00
46303;BME280;32029;51.358;5.628;2024-03-25T01:06:03;100510.97;;;6.01;100.00
46303;BME280;32029;51.358;5.628;2024-03-25T01:06:26;100524.44;;;6.10;100.00
46303;BME280;32029;51.358;5.628;2024-03-25T01:06:48;100522.03;;;6.07;100.00
46303;BME280;32029;51.358;5.628;2024-03-25T01:07:10;100526.97;;;6.04;100.00
46303;BME280;32029;51.358;5.628;2024-03-25T01:07:33;100528.50;;;6.06;100.00
46303;BME280;32029;51.358;5.628;2024-03-25T01:07:56;100518.44;;;5.99;100.00
46303;BME280;32029;51.358;5.628;2024-03-25T01:08:17;100520.66;;;6.03;100.00
46303;BME280;32029;51.358;5.628;2024-03-25T01:08:39;100518.44;;;5.99;100.00
46303;BME280;32029;51.358;5.628;2024-03-25T01:09:01;100523.38;;;6.03;100.00
46303;BME280;32029;51.358;5.628;2024-03-25T01:09:23;100533.44;;;6.03;100.00
46303;BME280;32029;51.358;5.628;2024-03-25T01:09:45;100524.41;;;6.02;100.00
46303;BME280;32029;51.358;5.628;2024-03-25T01:10:07;100538.56;;;6.06;100.00
46303;BME280;32029;51.358;5.628;2024-03-25T01:10:30;100511.91;;;5.92;100.00
46303;BME280;32029;51.358;5.628;2024-03-25T01:10:53;100515.38;;;5.94;100.00
46303;BME280;32029;51.358;5.628;2024-03-25T01:11:14;100509.34;;;5.90;100.00
46303;BME280;32029;51.358;5.628;2024-03-25T01:11:36;100526.94;;;5.96;100.00
46303;BME280;32029;51.358;5.628;2024-03-25T01:11:58;100507.81;;;5.87;100.00
46303;BME280;32029;51.358;5.628;2024-03-25T01:12:19;100532.06;;;5.99;100.00
46303;BME280;32029;51.358;5.628;2024-03-25T01:12:41;100521.34;;;5.97;100.00
46303;BME280;32029;51.358;5.628;2024-03-25T01:13:03;100532.06;;;5.99;100.00
46303;BME280;32029;51.358;5.628;2024-03-25T01:13:25;100527.63;;;5.98;100.00
46303;BME280;32029;51.358;5.628;2024-03-25T01:13:48;100529.88;;;6.02;100.00
46303;BME280;32029;51.358;5.628;2024-03-25T01:14:10;100525.25;;;6.03;100.00
46303;BME280;32029;51.358;5.628;2024-03-25T01:14:32;100516.03;;;5.96;100.00
46303;BME280;32029;51.358;5.628;2024-03-25T01:14:55;100511.28;;;5.98;100.00
46303;BME280;32029;51.358;5.628;2024-03-25T01:15:16;100512.41;;;5.87;100.00
46303;BME280;32029;51.358;5.628;2024-03-25T01:15:39;100515.50;;;5.92;100.00
46303;BME280;32029;51.358;5.628;2024-03-25T01:16:01;100510.22;;;5.90;100.00
46303;BME280;32029;51.358;5.628;2024-03-25T01:16:23;100529.88;;;6.02;100.00
46303;BME280;32029;51.358;5.628;2024-03-25T01:16:45;100511.91;;;5.92;100.00
46303;BME280;32029;51.358;5.628;2024-03-25T01:17:07;100509.19;;;5.92;100.00
46303;BME280;32029;51.358;5.628;2024-03-25T01:17:29;100505.63;;;5.91;100.00
46303;BME280;32029;51.358;5.628;2024-03-25T01:17:51;100494.00;;;5.81;100.00
46303;BME280;32029;51.358;5.628;2024-03-25T01:18:14;100521.88;;;6.01;100.00
46303;BME280;32029;51.358;5.628;2024-03-25T01:18:36;100524.59;;;6.01;100.00
46303;BME280;32029;51.358;5.628;2024-03-25T01:18:59;100517.34;;;5.92;100.00
46303;BME280;32029;51.358;5.628;2024-03-25T01:19:22;100515.38;;;5.94;100.00
46303;BME280;32029;51.358;5.628;2024-03-25T01:19:44;100508.34;;;5.91;100.00
46303;BME280;32029;51.358;5.628;2024-03-25T01:20:07;100497.25;;;5.84;100.00
46303;BME280;32029;51.358;5.628;2024-03-25T01:20:31;100520.13;;;6.00;100.00
46303;BME280;32029;51.358;5.628;2024-03-25T01:20:53;100517.06;;;5.95;100.00
46303;BME280;32029;51.358;5.628;2024-03-25T01:21:15;100500.81;;;5.85;100.00
46303;BME280;32029;51.358;5.628;2024-03-25T01:21:37;100492.28;;;5.80;100.00
46303;BME280;32029;51.358;5.628;2024-03-25T01:21:59;100524.06;;;5.97;100.00
46303;BME280;32029;51.358;5.628;2024-03-25T01:22:22;100525.91;;;5.97;100.00
46303;BME280;32029;51.358;5.628;2024-03-25T01:22:43;100517.06;;;5.95;100.00
46303;BME280;32029;51.358;5.628;2024-03-25T01:23:05;100513.63;;;5.93;100.00
46303;BME280;32029;51.358;5.628;2024-03-25T01:23:27;100518.63;;;5.97;100.00
46303;BME280;32029;51.358;5.628;2024-03-25T01:23:49;100525.91;;;5.97;100.00
46303;BME280;32029;51.358;5.628;2024-03-25T01:24:11;100504.41;;;5.85;100.00
46303;BME280;32029;51.358;5.628;2024-03-25T01:24:33;100514.53;;;5.93;100.00
46303;BME280;32029;51.358;5.628;2024-03-25T01:24:57;100524.22;;;5.96;100.00
46303;BME280;32029;51.358;5.628;2024-03-25T01:25:20;100509.69;;;5.87;100.00
46303;BME280;32029;51.358;5.628;2024-03-25T01:25:42;100496.88;;;5.79;100.00
46303;BME280;32029;51.358;5.628;2024-03-25T01:26:06;100529.66;;;5.96;100.00
46303;BME280;32029;51.358;5.628;2024-03-25T01:26:28;100524.84;;;5.89;100.00
46303;BME280;32029;51.358;5.628;2024-03-25T01:26:50;100525.25;;;5.95;100.00
46303;BME280;32029;51.358;5.628;2024-03-25T01:27:15;100509.16;;;5.83;100.00
46303;BME280;32029;51.358;5.628;2024-03-25T01:27:37;100514.94;;;5.88;100.00
46303;BME280;32029;51.358;5.628;2024-03-25T01:27:59;100505.75;;;5.81;100.00
46303;BME280;32029;51.358;5.628;2024-03-25T01:28:22;100525.19;;;5.86;100.00
46303;BME280;32029;51.358;5.628;2024-03-25T01:28:43;100518.69;;;5.87;100.00
46303;BME280;32029;51.358;5.628;2024-03-25T01:29:04;100507.59;;;5.81;100.00
46303;BME280;32029;51.358;5.628;2024-03-25T01:29:26;100522.59;;;5.85;100.00
46303;BME280;32029;51.358;5.628;2024-03-25T01:29:50;100523.63;;;5.84;100.00
46303;BME280;32029;51.358;5.628;2024-03-25T01:30:13;100511.34;;;5.80;100.00
46303;BME280;32029;51.358;5.628;2024-03-25T01:30:35;100517.50;;;5.82;100.00
46303;BME280;32029;51.358;5.628;2024-03-25T01:30:57;100525.66;;;5.82;100.00
46303;BME280;32029;51.358;5.628;2024-03-25T01:31:20;100506.41;;;5.75;100.00
46303;BME280;32029;51.358;5.628;2024-03-25T01:31:42;100526.66;;;5.81;100.00
46303;BME280;32029;51.358;5.628;2024-03-25T01:32:04;100525.81;;;5.80;100.00
46303;BME280;32029;51.358;5.628;2024-03-25T01:32:25;100538.63;;;5.88;100.00
46303;BME280;32029;51.358;5.628;2024-03-25T01:32:47;100530.75;;;5.85;100.00
46303;BME280;32029;51.358;5.628;2024-03-25T01:33:09;100523.78;;;5.82;100.00
46303;BME280;32029;51.358;5.628;2024-03-25T01:33:32;100528.22;;;5.83;100.00
46303;BME280;32029;51.358;5.628;2024-03-25T01:33:54;100527.38;;;5.83;100.00
46303;BME280;32029;51.358;5.628;2024-03-25T01:34:16;100537.09;;;5.85;100.00
46303;BME280;32029;51.358;5.628;2024-03-25T01:34:38;100522.09;;;5.81;100.00
46303;BME280;32029;51.358;5.628;2024-03-25T01:34:59;100520.72;;;5.77;100.00
46303;BME280;32029;51.358;5.628;2024-03-25T01:35:21;100517.13;;;5.77;100.00
46303;BME280;32029;51.358;5.628;2024-03-25T01:35:42;100519.69;;;5.78;100.00
46303;BME280;32029;51.358;5.628;2024-03-25T01:36:04;100518.66;;;5.79;100.00
46303;BME280;32029;51.358;5.628;2024-03-25T01:36:26;100522.09;;;5.81;100.00
46303;BME280;32029;51.358;5.628;2024-03-25T01:36:51;100518.66;;;5.79;100.00
46303;BME280;32029;51.358;5.628;2024-03-25T01:37:14;100531.47;;;5.87;100.00
46303;BME280;32029;51.358;5.628;2024-03-25T01:37:37;100529.78;;;5.86;100.00
46303;BME280;32029;51.358;5.628;2024-03-25T01:37:59;100517.50;;;5.82;100.00
46303;BME280;32029;51.358;5.628;2024-03-25T01:38:22;100526.03;;;5.87;100.00
46303;BME280;32029;51.358;5.628;2024-03-25T01:38:44;100513.53;;;5.76;100.00
46303;BME280;32029;51.358;5.628;2024-03-25T01:39:06;100524.31;;;5.86;100.00
46303;BME280;32029;51.358;5.628;2024-03-25T01:39:29;100513.53;;;5.76;100.00
46303;BME280;32029;51.358;5.628;2024-03-25T01:39:51;100525.81;;;5.80;100.00
46303;BME280;32029;51.358;5.628;2024-03-25T01:40:13;100523.78;;;5.82;100.00
46303;BME280;32029;51.358;5.628;2024-03-25T01:40:36;100523.94;;;5.81;100.00
46303;BME280;32029;51.358;5.628;2024-03-25T01:41:08;100523.09;;;5.80;100.00
46303;BME280;32029;51.358;5.628;2024-03-25T01:41:32;100528.22;;;5.83;100.00
46303;BME280;32029;51.358;5.628;2024-03-25T01:41:55;100518.50;;;5.81;100.00
46303;BME280;32029;51.358;5.628;2024-03-25T01:42:17;100526.19;;;5.85;100.00
46303;BME280;32029;51.358;5.628;2024-03-25T01:42:40;100525.19;;;5.86;100.00
46303;BME280;32029;51.358;5.628;2024-03-25T01:43:03;100528.91;;;5.85;100.00
46303;BME280;32029;51.358;5.628;2024-03-25T01:43:25;100526.03;;;5.87;100.00
46303;BME280;32029;51.358;5.628;2024-03-25T01:43:48;100523.31;;;5.87;100.00
46303;BME280;32029;51.358;5.628;2024-03-25T01:44:11;100509.47;;;5.80;100.00
46303;BME280;32029;51.358;5.628;2024-03-25T01:44:33;100517.81;;;5.79;100.00
46303;BME280;32029;51.358;5.628;2024-03-25T01:44:56;100517.50;;;5.82;100.00
46303;BME280;32029;51.358;5.628;2024-03-25T01:45:19;100527.56;;;5.89;100.00
46303;BME280;32029;51.358;5.628;2024-03-25T01:45:41;100514.28;;;5.86;100.00
46303;BME280;32029;51.358;5.628;2024-03-25T01:46:04;100499.63;;;5.79;100.00
46303;BME280;32029;51.358;5.628;2024-03-25T01:46:26;100523.13;;;5.88;100.00
46303;BME280;32029;51.358;5.628;2024-03-25T01:46:48;100515.97;;;5.87;100.00
46303;BME280;32029;51.358;5.628;2024-03-25T01:47:12;100511.03;;;5.83;100.00
46303;BME280;32029;51.358;5.628;2024-03-25T01:47:34;100499.63;;;5.79;100.00
46303;BME280;32029;51.358;5.628;2024-03-25T01:48:15;100505.41;;;5.84;100.00
46303;BME280;32029;51.358;5.628;2024-03-25T01:48:38;100514.09;;;5.88;100.00
46303;BME280;32029;51.358;5.628;2024-03-25T01:49:01;100516.81;;;5.88;100.00
46303;BME280;32029;51.358;5.628;2024-03-25T01:49:26;100521.09;;;5.90;100.00
46303;BME280;32029;51.358;5.628;2024-03-25T01:49:50;100515.13;;;5.87;100.00
46303;BME280;32029;51.358;5.628;2024-03-25T01:50:12;100511.38;;;5.88;100.00
46303;BME280;32029;51.358;5.628;2024-03-25T01:50:41;100511.22;;;5.89;100.00
46303;BME280;32029;51.358;5.628;2024-03-25T01:51:07;100508.13;;;5.84;100.00
46303;BME280;32029;51.358;5.628;2024-03-25T01:51:31;100495.72;;;5.82;100.00
46303;BME280;32029;51.358;5.628;2024-03-25T01:51:54;100509.34;;;5.90;100.00
46303;BME280;32029;51.358;5.628;2024-03-25T01:52:17;100500.81;;;5.85;100.00
46303;BME280;32029;51.358;5.628;2024-03-25T01:52:39;100513.78;;;5.91;100.00
46303;BME280;32029;51.358;5.628;2024-03-25T01:53:02;100511.22;;;5.89;100.00
46303;BME280;32029;51.358;5.628;2024-03-25T01:53:27;100515.38;;;5.94;100.00
46303;BME280;32029;51.358;5.628;2024-03-25T01:53:52;100511.06;;;5.91;100.00
46303;BME280;32029;51.358;5.628;2024-03-25T01:54:18;100504.41;;;5.85;100.00
46303;BME280;32029;51.358;5.628;2024-03-25T01:54:40;100511.91;;;5.92;100.00
46303;BME280;32029;51.358;5.628;2024-03-25T01:55:02;100511.78;;;5.93;100.00
46303;BME280;32029;51.358;5.628;2024-03-25T01:55:27;100495.53;;;5.83;100.00
46303;BME280;32029;51.358;5.628;2024-03-25T01:55:51;100511.91;;;5.92;100.00
46303;BME280;32029;51.358;5.628;2024-03-25T01:56:18;100514.34;;;5.95;100.00
46303;BME280;32029;51.358;5.628;2024-03-25T01:56:43;100516.22;;;5.94;100.00
46303;BME280;32029;51.358;5.628;2024-03-25T01:57:08;100513.97;;;5.89;100.00
46303;BME280;32029;51.358;5.628;2024-03-25T01:57:31;100507.50;;;5.90;100.00
46303;BME280;32029;51.358;5.628;2024-03-25T01:57:53;100519.97;;;5.93;100.00